createdAt,value
2019-02-10T00:01:22.292Z,100018.03
2019-02-10T00:04:26.348Z,100009.21
2019-02-10T00:07:30.390Z,100004.97
2019-02-10T00:10:34.443Z,100000.44
2019-02-10T00:13:38.480Z,99998.95
2019-02-10T00:16:42.532Z,100001.80
2019-02-10T00:19:46.616Z,100002.20
2019-02-10T00:22:50.651Z,100001.49
2019-02-10T00:25:54.706Z,99991.85
2019-02-10T00:28:58.736Z,99997.86
2019-02-10T00:32:02.794Z,99996.56
2019-02-10T00:35:06.824Z,99993.14
2019-02-10T00:38:10.879Z,99995.16
2019-02-10T00:41:14.975Z,99990.30
2019-02-10T00:44:19.016Z,99994.20
2019-02-10T00:47:23.068Z,99991.61
2019-02-10T00:50:27.100Z,99990.53
2019-02-10T00:53:31.152Z,99986.17
2019-02-10T00:56:35.184Z,99991.02
2019-02-10T00:59:39.239Z,99980.88
2019-02-10T01:02:43.288Z,99982.75
2019-02-10T01:05:47.315Z,99975.95
2019-02-10T01:08:51.366Z,99977.36
2019-02-10T01:11:55.424Z,99977.83
2019-02-10T01:14:59.451Z,99967.47
2019-02-10T01:18:03.507Z,99971.35
2019-02-10T01:21:07.542Z,99971.35
2019-02-10T01:24:11.595Z,99965.45
2019-02-10T01:27:15.652Z,99968.88
2019-02-10T01:30:20.684Z,99962.14
2019-02-10T01:33:24.738Z,99969.45
2019-02-10T01:36:28.763Z,99958.26
2019-02-10T01:39:32.815Z,99947.07
2019-02-10T01:42:36.869Z,99948.25
2019-02-10T01:45:40.903Z,99940.95
2019-02-10T01:48:44.951Z,99935.88
2019-02-10T01:51:49.016Z,99932.93
2019-02-10T01:54:53.068Z,99918.83
2019-02-10T01:57:57.156Z,99908.67
2019-02-10T02:01:01.187Z,99921.73
2019-02-10T02:04:05.247Z,99912.93
2019-02-10T02:07:09.275Z,99908.93
2019-02-10T02:10:13.599Z,99911.99
2019-02-10T02:13:17.651Z,99911.52
2019-02-10T02:16:21.679Z,99907.99
2019-02-10T02:19:25.741Z,99902.45
2019-02-10T02:22:29.792Z,99897.50
2019-02-10T02:25:33.819Z,99887.60
2019-02-10T02:28:37.871Z,99886.30
2019-02-10T02:31:41.905Z,99884.54
2019-02-10T02:34:45.958Z,99888.19
2019-02-10T02:37:50.012Z,99880.30
2019-02-10T02:40:54.057Z,99883.83
2019-02-10T02:43:58.104Z,99874.41
2019-02-10T02:47:02.131Z,99867.46
2019-02-10T02:50:10.656Z,99866.28
2019-02-10T02:53:14.687Z,99858.19
2019-02-10T02:56:18.741Z,99853.94
2019-02-10T02:59:22.798Z,99851.09
2019-02-10T03:02:26.829Z,99844.88
2019-02-10T03:05:30.883Z,99848.03
2019-02-10T03:08:34.910Z,99843.58
2019-02-10T03:11:38.965Z,99841.66
2019-02-10T03:14:43.018Z,99830.98
2019-02-10T03:17:47.051Z,99834.16
2019-02-10T03:20:51.104Z,99827.68
2019-02-10T03:23:55.158Z,99816.61
2019-02-10T03:26:59.193Z,99816.38
2019-02-10T03:30:03.414Z,99810.84
2019-02-10T03:33:07.445Z,99811.42
2019-02-10T03:36:11.491Z,99808.61
2019-02-10T03:39:15.561Z,99804.01
2019-02-10T03:42:19.654Z,99797.77
2019-02-10T03:45:23.708Z,99790.34
2019-02-10T03:48:27.737Z,99786.11
2019-02-10T03:51:31.795Z,99778.34
2019-02-10T03:54:35.852Z,99777.39
2019-02-10T03:57:39.884Z,99769.62
2019-02-10T04:00:43.938Z,99767.88
2019-02-10T04:03:47.968Z,99759.76
2019-02-10T04:06:52.021Z,99755.14
2019-02-10T04:09:56.074Z,99754.31
2019-02-10T04:13:00.102Z,99744.69
2019-02-10T04:16:04.163Z,99745.52
2019-02-10T04:19:08.218Z,99751.98
2019-02-10T04:22:12.240Z,99743.75
2019-02-10T04:25:16.291Z,99736.69
2019-02-10T04:28:20.324Z,99726.91
2019-02-10T04:31:24.383Z,99722.32
2019-02-10T04:34:28.431Z,99718.55
2019-02-10T04:37:32.464Z,99708.19
2019-02-10T04:40:36.521Z,99710.08
2019-02-10T04:43:40.550Z,99702.07
2019-02-10T04:46:44.606Z,99696.19
2019-02-10T04:49:48.659Z,99685.36
2019-02-10T04:52:52.695Z,99683.70
2019-02-10T04:56:08.615Z,99673.70
2019-02-10T04:59:12.668Z,99670.88
2019-02-10T05:02:16.706Z,99664.40
2019-02-10T05:05:20.757Z,99665.22
2019-02-10T05:08:24.801Z,99651.45
2019-02-10T05:11:28.844Z,99643.68
2019-02-10T05:14:32.899Z,99634.30
2019-02-10T05:17:36.928Z,99633.00
2019-02-10T05:20:40.987Z,99627.82
2019-02-10T05:23:45.104Z,99613.58
2019-02-10T05:26:49.333Z,99613.58
2019-02-10T05:29:53.383Z,99613.11
2019-02-10T05:32:57.426Z,99599.22
2019-02-10T05:36:01.479Z,99596.86
2019-02-10T05:39:05.876Z,99596.86
2019-02-10T05:42:09.927Z,99582.03
2019-02-10T05:45:13.981Z,99577.21
2019-02-10T05:48:18.016Z,99575.91
2019-02-10T05:51:22.066Z,99572.03
2019-02-10T05:54:26.096Z,99560.73
2019-02-10T05:57:30.153Z,99564.62
2019-02-10T06:00:34.204Z,99551.67
2019-02-10T06:03:38.238Z,99548.73
2019-02-10T06:06:42.286Z,99543.20
2019-02-10T06:09:46.344Z,99537.66
2019-02-10T06:12:50.444Z,99532.96
2019-02-10T06:15:54.497Z,99524.64
2019-02-10T06:18:58.526Z,99524.17
2019-02-10T06:22:02.582Z,99519.19
2019-02-10T06:25:08.174Z,99515.78
2019-02-10T06:28:12.204Z,99510.75
2019-02-10T06:31:16.260Z,99504.48
2019-02-10T06:34:20.290Z,99496.04
2019-02-10T06:37:24.343Z,99494.52
2019-02-10T06:40:28.397Z,99486.28
2019-02-10T06:43:32.436Z,99485.69
2019-02-10T06:46:36.542Z,99473.45
2019-02-10T06:49:40.577Z,99467.05
2019-02-10T06:52:44.626Z,99464.81
2019-02-10T06:55:48.681Z,99466.57
2019-02-10T06:58:52.722Z,99464.76
2019-02-10T07:01:58.417Z,99469.34
2019-02-10T07:05:02.474Z,99463.77
2019-02-10T07:08:06.579Z,99454.33
2019-02-10T07:11:10.630Z,99442.75
2019-02-10T07:14:17.923Z,99434.73
2019-02-10T07:17:25.230Z,99432.23
2019-02-10T07:20:40.144Z,99422.89
2019-02-10T07:24:05.621Z,99418.88
2019-02-10T07:27:15.951Z,99411.55
2019-02-10T07:30:23.260Z,99407.73
2019-02-10T07:34:05.592Z,99404.31
2019-02-10T07:37:15.472Z,99399.95
2019-02-10T07:40:31.455Z,99385.23
2019-02-10T07:44:07.699Z,99382.98
2019-02-10T07:47:26.792Z,99378.16
2019-02-10T07:50:56.133Z,99360.61
2019-02-10T07:54:20.363Z,99359.92
2019-02-10T07:57:30.356Z,99349.56
2019-02-10T08:00:43.319Z,99350.19
2019-02-10T08:03:59.459Z,99342.73
2019-02-10T08:07:09.551Z,99332.05
2019-02-10T08:10:31.960Z,99324.75
2019-02-10T08:14:01.795Z,99326.88
2019-02-10T08:17:18.066Z,99309.69
2019-02-10T08:20:30.952Z,99295.09
2019-02-10T08:23:53.192Z,99287.66
2019-02-10T08:27:00.506Z,99277.30
2019-02-10T08:30:39.564Z,99265.64
2019-02-10T08:34:03.351Z,99265.30
2019-02-10T08:37:13.470Z,99249.13
2019-02-10T08:40:29.673Z,99243.55
2019-02-10T08:43:51.800Z,99232.77
2019-02-10T08:47:01.855Z,99217.91
2019-02-10T08:50:21.099Z,99213.59
2019-02-10T08:53:25.824Z,99211.97
2019-02-10T08:56:29.861Z,99202.31
2019-02-10T08:59:33.921Z,99191.20
2019-02-10T09:02:37.976Z,99176.57
2019-02-10T09:05:42.009Z,99173.92
2019-02-10T09:08:46.069Z,99165.20
2019-02-10T09:11:50.105Z,99154.42
2019-02-10T09:14:54.152Z,99128.86
2019-02-10T09:17:58.204Z,99122.94
2019-02-10T09:21:02.237Z,99114.94
2019-02-10T09:24:06.279Z,99102.26
2019-02-10T09:27:10.308Z,99089.05
2019-02-10T09:30:14.394Z,99069.98
2019-02-10T09:33:18.442Z,99058.09
2019-02-10T09:36:22.475Z,99065.23
2019-02-10T09:39:26.537Z,99066.59
2019-02-10T09:42:30.641Z,99052.38
2019-02-10T09:45:34.691Z,99041.07
2019-02-10T09:48:38.720Z,99022.58
2019-02-10T09:51:42.777Z,99009.44
2019-02-10T09:54:46.834Z,98991.39
2019-02-10T09:57:50.864Z,98979.45
2019-02-10T10:00:54.921Z,98959.52
2019-02-10T10:03:58.957Z,98940.29
2019-02-10T10:07:03.012Z,98926.08
2019-02-10T10:10:09.770Z,98921.13
2019-02-10T10:13:13.802Z,98921.64
2019-02-10T10:16:17.860Z,98916.27
2019-02-10T10:19:21.896Z,98902.50
2019-02-10T10:22:25.951Z,98884.99
2019-02-10T10:25:30.003Z,98877.05
2019-02-10T10:28:34.035Z,98868.97
2019-02-10T10:31:38.088Z,98860.09
2019-02-10T10:34:42.146Z,98861.54
2019-02-10T10:37:46.175Z,98860.42
2019-02-10T10:40:50.227Z,98860.94
2019-02-10T10:43:54.266Z,98839.67
2019-02-10T10:46:58.323Z,98840.63
2019-02-10T10:50:02.382Z,98825.25
2019-02-10T10:53:06.419Z,98817.75
2019-02-10T10:56:10.471Z,98803.97
2019-02-10T10:59:14.503Z,98787.39
2019-02-10T11:02:18.560Z,98776.02
2019-02-10T11:05:22.630Z,98761.58
2019-02-10T11:08:26.660Z,98745.86
2019-02-10T11:11:30.719Z,98730.89
2019-02-10T11:14:34.779Z,98720.82
2019-02-10T11:17:38.825Z,98716.45
2019-02-10T11:20:42.876Z,98708.80
2019-02-10T11:23:46.908Z,98693.53
2019-02-10T11:26:50.964Z,98681.02
2019-02-10T11:29:55.006Z,98672.41
2019-02-10T11:32:59.066Z,98665.28
2019-02-10T11:36:03.124Z,98660.07
2019-02-10T11:39:07.158Z,98646.13
2019-02-10T11:42:11.212Z,98632.92
2019-02-10T11:45:15.513Z,98620.26
2019-02-10T11:48:19.566Z,98612.63
2019-02-10T11:51:23.619Z,98601.42
2019-02-10T11:54:27.652Z,98597.98
2019-02-10T11:57:31.706Z,98589.86
2019-02-10T12:00:35.763Z,98583.36
2019-02-10T12:03:39.818Z,98575.09
2019-02-10T12:06:43.873Z,98574.58
2019-02-10T12:09:51.684Z,98571.98
2019-02-10T12:12:53.657Z,98557.52
2019-02-10T12:15:57.712Z,98547.45
2019-02-10T12:19:01.754Z,98544.84
2019-02-10T12:22:06.711Z,98529.73
2019-02-10T12:25:10.914Z,98518.00
2019-02-10T12:28:14.969Z,98506.50
2019-02-10T12:31:19.022Z,98489.43
2019-02-10T12:34:23.051Z,98493.33
2019-02-10T12:37:32.299Z,98482.16
2019-02-10T12:40:32.836Z,98471.27
2019-02-10T12:43:36.890Z,98460.25
2019-02-10T12:46:40.944Z,98460.25
2019-02-10T12:49:44.980Z,98446.28
2019-02-10T12:52:49.035Z,98426.98
2019-02-10T12:55:53.068Z,98420.33
2019-02-10T12:58:57.124Z,98417.73
2019-02-10T13:02:01.180Z,98405.06
2019-02-10T13:05:06.357Z,98401.48
2019-02-10T13:08:10.412Z,98391.74
2019-02-10T13:11:14.467Z,98377.48
2019-02-10T13:14:18.508Z,98360.77
2019-02-10T13:17:22.565Z,98366.77
2019-02-10T13:20:26.599Z,98355.41
2019-02-10T13:23:30.654Z,98349.08
2019-02-10T13:26:34.704Z,98344.08
2019-02-10T13:29:38.737Z,98333.59
2019-02-10T13:32:45.779Z,98333.27
2019-02-10T13:35:49.814Z,98324.98
2019-02-10T13:38:53.870Z,98320.22
2019-02-10T13:41:56.980Z,98304.91
2019-02-10T13:45:01.011Z,98304.31
2019-02-10T13:48:05.068Z,98292.66
2019-02-10T13:51:09.153Z,98283.55
2019-02-10T13:54:13.207Z,98278.96
2019-02-10T13:57:17.264Z,98285.84
2019-02-10T14:00:23.600Z,98283.94
2019-02-10T14:03:27.652Z,98287.30
2019-02-10T14:06:31.709Z,98279.02
2019-02-10T14:09:35.742Z,98265.92
2019-02-10T14:12:39.797Z,98258.61
2019-02-10T14:15:43.832Z,98250.17
2019-02-10T14:18:47.879Z,98249.23
2019-02-10T14:21:51.935Z,98247.13
2019-02-10T14:24:56.068Z,98240.14
2019-02-10T14:28:00.124Z,98238.16
2019-02-10T14:31:04.162Z,98231.83
2019-02-10T14:34:08.213Z,98227.81
2019-02-10T14:37:12.272Z,98227.94
2019-02-10T14:40:16.307Z,98228.19
2019-02-10T14:43:20.360Z,98230.23
2019-02-10T14:46:24.387Z,98221.86
2019-02-10T14:49:28.439Z,98223.40
2019-02-10T14:52:32.509Z,98222.76
2019-02-10T14:55:36.588Z,98220.09
2019-02-10T14:58:43.108Z,98218.23
2019-02-10T15:01:46.327Z,98220.69
2019-02-10T15:04:50.384Z,98207.08
2019-02-10T15:07:54.448Z,98209.36
2019-02-10T15:10:58.471Z,98210.69
2019-02-10T15:14:02.529Z,98210.00
2019-02-10T15:17:06.579Z,98203.05
2019-02-10T15:20:12.608Z,98206.30
2019-02-10T15:23:16.662Z,98202.73
2019-02-10T15:26:20.710Z,98198.17
2019-02-10T15:29:24.767Z,98190.67
2019-02-10T15:32:28.826Z,98186.94
2019-02-10T15:35:32.847Z,98178.30
2019-02-10T15:38:36.904Z,98180.83
2019-02-10T15:41:40.935Z,98173.89
2019-02-10T15:44:45.772Z,98171.06
2019-02-10T15:47:49.928Z,98178.60
2019-02-10T15:50:53.964Z,98175.59
2019-02-10T15:53:58.019Z,98178.17
2019-02-10T15:57:02.108Z,98177.05
2019-02-10T16:00:12.305Z,98177.39
2019-02-10T16:03:16.530Z,98177.53
2019-02-10T16:06:20.561Z,98183.05
2019-02-10T16:09:24.614Z,98181.75
2019-02-10T16:12:28.729Z,98177.53
2019-02-10T16:15:32.789Z,98166.38
2019-02-10T16:18:36.852Z,98171.27
2019-02-10T16:21:40.879Z,98168.83
2019-02-10T16:24:44.931Z,98167.32
2019-02-10T16:27:48.997Z,98170.53
2019-02-10T16:30:53.031Z,98173.20
2019-02-10T16:33:57.084Z,98162.23
2019-02-10T16:37:01.115Z,98162.80
2019-02-10T16:40:08.444Z,98169.59
2019-02-10T16:43:12.500Z,98168.11
2019-02-10T16:46:16.538Z,98171.20
2019-02-10T16:49:20.596Z,98161.30
2019-02-10T16:52:24.635Z,98163.63
2019-02-10T16:55:28.679Z,98168.52
2019-02-10T16:58:32.739Z,98165.77
2019-02-10T17:01:37.059Z,98166.11
2019-02-10T17:04:41.376Z,98163.98
2019-02-10T17:07:45.516Z,98163.39
2019-02-10T17:10:49.763Z,98168.25
2019-02-10T17:13:54.080Z,98173.94
2019-02-10T17:16:58.305Z,98178.65
2019-02-10T17:20:02.673Z,98183.38
2019-02-10T17:23:06.924Z,98186.47
2019-02-10T17:26:11.075Z,98184.73
2019-02-10T17:29:15.127Z,98175.83
2019-02-10T17:32:19.163Z,98177.30
2019-02-10T17:35:23.222Z,98178.11
2019-02-10T17:38:28.392Z,98182.02
2019-02-10T17:41:32.447Z,98187.28
2019-02-10T17:44:36.499Z,98186.16
2019-02-10T17:47:40.532Z,98190.25
2019-02-10T17:50:44.594Z,98194.48
2019-02-10T17:53:48.645Z,98197.75
2019-02-10T17:56:52.682Z,98196.98
2019-02-10T17:59:56.730Z,98202.99
2019-02-10T18:03:00.764Z,98197.81
2019-02-10T18:06:04.815Z,98197.81
2019-02-10T18:09:08.880Z,98203.17
2019-02-10T18:12:12.922Z,98209.43
2019-02-10T18:15:30.376Z,98204.89
2019-02-10T18:18:41.984Z,98208.07
2019-02-10T18:21:53.847Z,98207.75
2019-02-10T18:25:17.734Z,98208.88
2019-02-10T18:28:38.723Z,98202.42
2019-02-10T18:32:01.240Z,98197.72
2019-02-10T18:35:24.555Z,98208.73
2019-02-10T18:38:48.613Z,98209.43
2019-02-10T18:42:03.208Z,98222.91
2019-02-10T18:45:12.020Z,98213.34
2019-02-10T18:48:32.812Z,98211.39
2019-02-10T18:51:38.486Z,98221.81
2019-02-10T18:54:47.128Z,98221.66
2019-02-10T18:58:05.015Z,98227.98
2019-02-10T19:01:25.715Z,98227.33
2019-02-10T19:04:47.785Z,98231.23
2019-02-10T19:08:02.492Z,98229.32
2019-02-10T19:11:13.863Z,98238.38
2019-02-10T19:14:22.174Z,98239.87
2019-02-10T19:17:36.835Z,98246.52
2019-02-10T19:20:42.522Z,98261.16
2019-02-10T19:23:48.197Z,98270.56
2019-02-10T19:27:02.851Z,98274.62
2019-02-10T19:30:28.049Z,98284.67
2019-02-10T19:33:33.720Z,98305.31
2019-02-10T19:36:39.419Z,98318.45
2019-02-10T19:39:50.607Z,98331.27
2019-02-10T19:42:56.304Z,98331.59
2019-02-10T19:46:17.921Z,98337.75
2019-02-10T19:49:23.592Z,98350.73
2019-02-10T19:52:32.288Z,98350.25
2019-02-10T19:55:49.767Z,98367.27
2019-02-10T19:59:11.907Z,98386.24
2019-02-10T20:02:35.904Z,98390.63
2019-02-10T20:05:47.552Z,98418.84
2019-02-10T20:08:56.215Z,98428.60
2019-02-10T20:12:16.972Z,98445.47
2019-02-10T20:15:25.723Z,98444.48
2019-02-10T20:18:34.181Z,98451.79
2019-02-10T20:21:42.520Z,98469.14
2019-02-10T20:24:56.982Z,98476.27
2019-02-10T20:28:02.677Z,98490.21
2019-02-10T20:31:08.348Z,98513.25
2019-02-10T20:34:22.800Z,98516.33
2019-02-10T20:37:45.050Z,98528.80
2019-02-10T20:40:56.880Z,98539.17
2019-02-10T20:44:08.068Z,98557.82
2019-02-10T20:47:29.817Z,98569.65
2019-02-10T20:50:38.475Z,98583.10
2019-02-10T20:53:49.890Z,98607.27
2019-02-10T20:57:04.808Z,98612.46
2019-02-10T21:00:14.940Z,98626.43
2019-02-10T21:03:20.632Z,98638.73
2019-02-10T21:06:41.037Z,98652.67
2019-02-10T21:09:49.255Z,98671.80
2019-02-10T21:13:07.240Z,98684.44
2019-02-10T21:16:21.660Z,98697.89
2019-02-10T21:19:39.474Z,98714.54
2019-02-10T21:22:45.142Z,98720.40
2019-02-10T21:25:52.740Z,98729.47
2019-02-10T21:29:04.247Z,98742.93
2019-02-10T21:32:12.733Z,98751.20
2019-02-10T21:35:18.423Z,98768.20
2019-02-10T21:38:27.165Z,98770.16
2019-02-10T21:41:38.847Z,98789.14
2019-02-10T21:44:47.226Z,98801.77
2019-02-10T21:47:52.883Z,98805.00
2019-02-10T21:50:56.936Z,98817.63
2019-02-10T21:54:00.967Z,98826.72
2019-02-10T21:57:05.021Z,98836.27
2019-02-10T22:00:12.544Z,98841.61
2019-02-10T22:03:16.577Z,98840.77
2019-02-10T22:06:20.632Z,98852.64
2019-02-10T22:09:24.665Z,98863.64
2019-02-10T22:12:36.826Z,98872.05
2019-02-10T22:15:34.468Z,98880.78
2019-02-10T22:18:38.499Z,98886.59
2019-02-10T22:21:42.553Z,98898.94
2019-02-10T22:24:46.605Z,98907.66
2019-02-10T22:27:50.644Z,98908.96
2019-02-10T22:30:54.700Z,98923.70
2019-02-10T22:33:58.736Z,98928.41
2019-02-10T22:37:02.778Z,98940.37
2019-02-10T22:40:09.733Z,98950.41
2019-02-10T22:43:13.763Z,98959.00
2019-02-10T22:46:17.819Z,98965.77
2019-02-10T22:49:21.852Z,98973.55
2019-02-10T22:52:25.902Z,98986.03
2019-02-10T22:55:29.961Z,98996.72
2019-02-10T22:58:33.991Z,99008.05
2019-02-10T23:01:38.049Z,99013.23
2019-02-10T23:04:42.120Z,99022.79
2019-02-10T23:07:46.182Z,99016.97
2019-02-10T23:10:51.948Z,99046.13
2019-02-10T23:13:56.148Z,99054.05
2019-02-10T23:17:00.241Z,99070.22
2019-02-10T23:20:05.622Z,99076.23
2019-02-10T23:23:09.653Z,99085.44
2019-02-10T23:26:13.709Z,99090.28
2019-02-10T23:29:17.739Z,99105.84
2019-02-10T23:32:21.802Z,99109.91
2019-02-10T23:35:25.850Z,99121.57
2019-02-10T23:38:29.879Z,99136.65
2019-02-10T23:41:33.931Z,99144.22
2019-02-10T23:44:37.969Z,99154.12
2019-02-10T23:47:42.033Z,99162.51
2019-02-10T23:50:46.092Z,99175.95
2019-02-10T23:53:50.119Z,99191.03
2019-02-10T23:56:54.171Z,99197.30
2019-02-10T23:59:58.201Z,99202.97
